createdAt,value
2018-08-19T07:48:32.048Z,5.60
2018-08-19T07:53:26.802Z,6.57
2018-08-19T07:58:57.615Z,4.20
2018-08-19T08:03:52.395Z,4.73
2018-08-19T08:08:47.340Z,4.27
2018-08-19T08:13:42.068Z,6.23
2018-08-19T08:18:37.216Z,4.80
2018-08-19T08:23:31.911Z,4.37
2018-08-19T08:28:26.677Z,11.03
2018-08-19T08:33:21.511Z,4.80
2018-08-19T08:43:38.995Z,5.20
2018-08-19T08:48:35.772Z,7.17
2018-08-19T08:53:42.568Z,3.97
2018-08-19T08:58:37.514Z,5.13
2018-08-19T09:03:32.261Z,4.37
2018-08-19T09:08:27.312Z,4.13
2018-08-19T09:13:22.172Z,7.40
2018-08-19T09:18:17.073Z,4.97
2018-08-19T09:23:12.281Z,5.63
2018-08-19T09:28:06.949Z,5.13
2018-08-19T09:33:02.385Z,5.57
2018-08-19T09:38:03.128Z,7.10
2018-08-19T09:42:57.969Z,6.27
2018-08-19T09:47:52.734Z,7.93
2018-08-19T09:52:47.568Z,4.80
2018-08-19T09:57:47.474Z,6.80
2018-08-19T10:02:47.471Z,5.50
2018-08-19T10:07:42.446Z,7.30
2018-08-19T10:12:37.610Z,5.03
2018-08-19T10:17:32.451Z,7.00
2018-08-19T10:22:31.254Z,7.77
2018-08-19T10:27:25.979Z,7.13
2018-08-19T10:32:21.357Z,6.00
2018-08-19T10:37:16.083Z,8.97
2018-08-19T10:42:23.042Z,6.87
2018-08-19T10:47:18.477Z,6.43
2018-08-19T10:52:18.308Z,6.07
2018-08-19T10:57:19.051Z,8.20
2018-08-19T11:02:13.776Z,8.77
2018-08-19T11:07:08.557Z,8.43
2018-08-19T11:12:03.343Z,6.57
2018-08-19T11:16:58.455Z,5.97
2018-08-19T11:21:53.369Z,7.07
2018-08-19T11:26:53.467Z,6.00
2018-08-19T11:31:48.500Z,7.57
2018-08-19T11:36:43.499Z,9.57
2018-08-19T11:41:38.259Z,7.10
2018-08-19T11:46:32.950Z,6.17
2018-08-19T11:52:01.087Z,9.47
2018-08-19T11:57:03.938Z,8.43
2018-08-19T12:01:59.498Z,9.47
2018-08-19T12:12:50.562Z,9.17
2018-08-19T12:17:45.635Z,8.13
2018-08-19T12:22:42.219Z,7.90
2018-08-19T12:27:55.379Z,10.63
2018-08-19T12:32:50.520Z,6.47
2018-08-19T12:37:45.260Z,8.03
2018-08-19T12:42:44.674Z,7.47
2018-08-19T12:47:39.396Z,7.30
2018-08-19T12:52:34.821Z,6.80
2018-08-19T12:57:29.960Z,7.63
2018-08-19T13:02:26.937Z,5.90
2018-08-19T13:07:21.818Z,6.07
2018-08-19T13:12:16.586Z,6.40
2018-08-19T13:17:11.344Z,9.50
2018-08-19T13:22:06.336Z,6.73
2018-08-19T13:27:01.790Z,8.27
2018-08-19T13:31:57.523Z,10.33
2018-08-19T13:36:52.706Z,7.33
2018-08-19T13:41:47.620Z,9.33
2018-08-19T13:46:42.866Z,8.10
2018-08-19T13:51:37.635Z,8.60
2018-08-19T13:56:32.729Z,6.03
2018-08-19T14:01:27.464Z,6.40
2018-08-19T14:06:22.210Z,6.70
2018-08-19T14:11:16.948Z,6.33
2018-08-19T14:16:11.935Z,8.57
2018-08-19T14:21:06.889Z,6.80
2018-08-19T14:26:01.906Z,6.83
2018-08-19T14:30:56.852Z,7.50
2018-08-19T14:35:51.570Z,8.47
2018-08-19T14:59:58.537Z,9.03
2018-08-19T15:04:53.587Z,6.53
2018-08-19T15:09:51.958Z,10.10
2018-08-19T15:14:46.875Z,7.33
2018-08-19T15:19:43.576Z,6.47
2018-08-19T15:24:38.547Z,9.00
2018-08-19T15:29:33.405Z,7.10
2018-08-19T15:34:29.164Z,6.30
2018-08-19T15:39:24.133Z,7.63
2018-08-19T15:44:19.158Z,8.00
2018-08-19T15:49:20.436Z,8.50
2018-08-19T15:54:15.195Z,11.57
2018-08-19T15:59:10.934Z,8.67
2018-08-19T16:04:12.326Z,8.50
2018-08-19T16:09:11.037Z,9.93
2018-08-19T16:14:16.348Z,7.20
2018-08-19T16:19:11.113Z,10.13
2018-08-19T16:24:10.117Z,7.27
2018-08-19T16:29:05.734Z,8.00
2018-08-19T16:34:00.715Z,8.90
2018-08-19T16:38:56.489Z,9.23
2018-08-19T16:43:51.480Z,7.73
2018-08-19T16:48:46.289Z,7.20
2018-08-19T16:53:41.242Z,7.17
2018-08-19T16:58:35.932Z,8.40
2018-08-19T17:03:35.812Z,7.53
2018-08-19T17:08:30.321Z,6.63
2018-08-19T17:13:24.832Z,6.47
2018-08-19T17:18:19.264Z,6.73
2018-08-19T17:23:19.788Z,7.43
2018-08-19T17:28:19.215Z,8.60
2018-08-19T17:33:13.809Z,6.10
2018-08-19T17:38:08.800Z,8.20
2018-08-19T17:43:04.058Z,8.50
2018-08-19T17:47:58.524Z,9.70
2018-08-19T17:52:53.660Z,9.67
2018-08-19T17:57:48.198Z,8.03
2018-08-19T18:02:42.899Z,8.47
2018-08-19T18:07:37.574Z,11.80
2018-08-19T18:12:32.060Z,8.60
2018-08-19T18:17:26.494Z,10.83
2018-08-19T18:22:22.034Z,8.87
2018-08-19T18:27:16.773Z,8.53
2018-08-19T18:32:11.238Z,11.23
2018-08-19T18:37:05.920Z,12.00
2018-08-19T18:42:00.959Z,10.00
2018-08-19T18:46:56.175Z,15.20
2018-08-19T18:51:53.905Z,11.47
2018-08-19T18:56:48.630Z,10.23
2018-08-19T19:01:44.625Z,11.40
2018-08-19T19:06:39.260Z,8.80
2018-08-19T19:11:34.938Z,10.20
2018-08-19T19:16:36.575Z,9.97
2018-08-19T19:21:31.083Z,9.83
2018-08-19T19:26:31.157Z,9.60
2018-08-19T19:31:25.754Z,9.67
2018-08-19T19:36:20.887Z,8.30
2018-08-19T19:41:16.147Z,9.53
2018-08-19T19:46:10.646Z,8.13
2018-08-19T19:51:05.332Z,9.20
2018-08-19T19:56:16.648Z,11.27
2018-08-19T20:01:12.412Z,9.13
2018-08-19T20:06:07.357Z,9.00
2018-08-19T20:11:01.847Z,8.93
2018-08-19T20:15:56.315Z,8.70
2018-08-19T20:20:51.267Z,10.30
2018-08-19T20:25:46.145Z,9.90
2018-08-19T20:30:41.264Z,10.47
2018-08-19T20:35:36.215Z,14.27
2018-08-19T20:40:31.195Z,9.13
2018-08-19T20:45:25.810Z,11.23
2018-08-19T20:50:21.788Z,10.47
2018-08-19T20:55:18.704Z,9.70
2018-08-19T21:00:16.861Z,10.43
2018-08-19T21:05:12.411Z,8.97
2018-08-19T21:10:08.095Z,9.10
2018-08-19T21:15:03.504Z,9.17
2018-08-19T21:19:59.132Z,11.23
2018-08-19T21:24:54.369Z,9.20
2018-08-19T21:29:49.912Z,7.80
2018-08-19T21:34:45.215Z,9.60
2018-08-19T21:39:43.319Z,10.10
2018-08-19T21:44:38.613Z,9.50
2018-08-19T21:49:33.467Z,8.63
2018-08-19T21:54:37.797Z,10.53
2018-08-19T21:59:32.321Z,9.00
2018-08-19T22:04:34.919Z,10.67
2018-08-19T22:09:54.275Z,8.80
2018-08-19T22:14:59.531Z,10.23
2018-08-19T22:20:05.594Z,10.50
2018-08-19T22:25:00.835Z,11.00
2018-08-19T22:29:55.725Z,9.77
2018-08-19T22:34:53.413Z,11.70
2018-08-19T22:39:59.694Z,12.77
2018-08-19T22:44:55.650Z,10.57
2018-08-19T22:49:50.273Z,10.93
2018-08-19T22:54:44.856Z,11.00
2018-08-19T22:59:44.225Z,10.53
2018-08-19T23:04:46.485Z,11.93
2018-08-19T23:09:40.963Z,11.67
2018-08-19T23:14:52.455Z,10.73
2018-08-19T23:19:49.981Z,12.00
2018-08-19T23:24:44.450Z,11.57
2018-08-19T23:29:39.316Z,13.60
2018-08-19T23:34:33.975Z,11.13
2018-08-19T23:39:28.480Z,11.30
2018-08-19T23:44:23.217Z,11.23
2018-08-19T23:49:17.853Z,10.40
2018-08-19T23:54:12.476Z,10.50
2018-08-19T23:59:07.220Z,13.23
